sensor_id;sensor_type;location;lat;lon;timestamp;P1;durP1;ratioP1;P2;durP2;ratioP2
15905;SDS011;8051;50.820;4.884;2024-01-07T00:00:39;37.73;;;34.57;;
15905;SDS011;8051;50.820;4.884;2024-01-07T00:03:07;38.70;;;35.50;;
15905;SDS011;8051;50.820;4.884;2024-01-07T00:05:37;41.43;;;37.73;;
15905;SDS011;8051;50.820;4.884;2024-01-07T00:08:04;38.43;;;35.20;;
15905;SDS011;8051;50.820;4.884;2024-01-07T00:10:32;39.80;;;36.50;;
15905;SDS011;8051;50.820;4.884;2024-01-07T00:13:00;39.53;;;36.23;;
15905;SDS011;8051;50.820;4.884;2024-01-07T00:15:27;40.13;;;36.63;;
15905;SDS011;8051;50.820;4.884;2024-01-07T00:17:55;39.70;;;36.53;;
15905;SDS011;8051;50.820;4.884;2024-01-07T00:20:22;39.63;;;36.17;;
15905;SDS011;8051;50.820;4.884;2024-01-07T00:22:51;40.37;;;36.83;;
15905;SDS011;8051;50.820;4.884;2024-01-07T00:25:18;40.40;;;36.97;;
15905;SDS011;8051;50.820;4.884;2024-01-07T00:27:47;42.03;;;38.43;;
15905;SDS011;8051;50.820;4.884;2024-01-07T00:30:16;39.87;;;36.57;;
15905;SDS011;8051;50.820;4.884;2024-01-07T00:32:44;41.00;;;37.67;;
15905;SDS011;8051;50.820;4.884;2024-01-07T00:35:11;41.67;;;38.13;;
15905;SDS011;8051;50.820;4.884;2024-01-07T00:37:39;41.40;;;37.70;;
15905;SDS011;8051;50.820;4.884;2024-01-07T00:40:09;39.60;;;36.17;;
15905;SDS011;8051;50.820;4.884;2024-01-07T00:42:37;41.77;;;38.17;;
15905;SDS011;8051;50.820;4.884;2024-01-07T00:45:04;41.37;;;37.97;;
15905;SDS011;8051;50.820;4.884;2024-01-07T00:47:34;42.10;;;38.60;;
15905;SDS011;8051;50.820;4.884;2024-01-07T00:50:01;43.30;;;39.47;;
15905;SDS011;8051;50.820;4.884;2024-01-07T00:52:29;40.93;;;37.43;;
15905;SDS011;8051;50.820;4.884;2024-01-07T00:54:56;39.90;;;36.77;;
15905;SDS011;8051;50.820;4.884;2024-01-07T00:57:25;41.10;;;37.70;;
15905;SDS011;8051;50.820;4.884;2024-01-07T00:59:53;41.70;;;38.30;;
15905;SDS011;8051;50.820;4.884;2024-01-07T01:02:20;41.13;;;37.80;;
15905;SDS011;8051;50.820;4.884;2024-01-07T01:04:48;42.00;;;38.60;;
15905;SDS011;8051;50.820;4.884;2024-01-07T01:07:15;43.13;;;39.57;;
15905;SDS011;8051;50.820;4.884;2024-01-07T01:09:43;41.10;;;37.70;;
15905;SDS011;8051;50.820;4.884;2024-01-07T01:12:10;39.63;;;36.47;;
15905;SDS011;8051;50.820;4.884;2024-01-07T01:14:39;41.40;;;37.80;;
15905;SDS011;8051;50.820;4.884;2024-01-07T01:17:07;44.63;;;40.97;;
15905;SDS011;8051;50.820;4.884;2024-01-07T01:19:34;42.03;;;38.70;;
15905;SDS011;8051;50.820;4.884;2024-01-07T01:22:02;42.43;;;39.13;;
15905;SDS011;8051;50.820;4.884;2024-01-07T01:24:30;42.23;;;38.97;;
15905;SDS011;8051;50.820;4.884;2024-01-07T01:26:57;44.03;;;40.13;;
15905;SDS011;8051;50.820;4.884;2024-01-07T01:29:24;42.17;;;38.67;;
15905;SDS011;8051;50.820;4.884;2024-01-07T01:31:53;42.70;;;38.90;;
15905;SDS011;8051;50.820;4.884;2024-01-07T01:34:20;43.10;;;39.60;;
15905;SDS011;8051;50.820;4.884;2024-01-07T01:36:48;43.67;;;40.07;;
15905;SDS011;8051;50.820;4.884;2024-01-07T01:39:16;42.83;;;39.30;;
15905;SDS011;8051;50.820;4.884;2024-01-07T01:41:44;40.07;;;36.77;;
15905;SDS011;8051;50.820;4.884;2024-01-07T01:44:11;42.60;;;38.97;;
15905;SDS011;8051;50.820;4.884;2024-01-07T01:46:38;42.07;;;38.47;;
15905;SDS011;8051;50.820;4.884;2024-01-07T01:49:07;51.70;;;47.60;;
15905;SDS011;8051;50.820;4.884;2024-01-07T01:51:35;48.53;;;44.60;;
15905;SDS011;8051;50.820;4.884;2024-01-07T01:54:03;48.77;;;44.80;;
15905;SDS011;8051;50.820;4.884;2024-01-07T01:56:31;50.60;;;46.20;;
15905;SDS011;8051;50.820;4.884;2024-01-07T01:59:00;50.17;;;45.77;;
15905;SDS011;8051;50.820;4.884;2024-01-07T02:01:27;48.43;;;44.33;;
15905;SDS011;8051;50.820;4.884;2024-01-07T02:03:56;56.10;;;51.60;;
15905;SDS011;8051;50.820;4.884;2024-01-07T02:06:25;51.23;;;46.83;;
15905;SDS011;8051;50.820;4.884;2024-01-07T02:08:53;56.27;;;51.47;;
15905;SDS011;8051;50.820;4.884;2024-01-07T02:11:21;56.70;;;51.80;;
15905;SDS011;8051;50.820;4.884;2024-01-07T02:13:49;57.83;;;53.07;;
15905;SDS011;8051;50.820;4.884;2024-01-07T02:16:16;61.57;;;56.37;;
15905;SDS011;8051;50.820;4.884;2024-01-07T02:18:44;57.83;;;53.03;;
15905;SDS011;8051;50.820;4.884;2024-01-07T02:21:13;58.43;;;53.40;;
15905;SDS011;8051;50.820;4.884;2024-01-07T02:23:42;48.73;;;44.10;;
15905;SDS011;8051;50.820;4.884;2024-01-07T02:26:10;51.70;;;46.97;;
15905;SDS011;8051;50.820;4.884;2024-01-07T02:28:38;49.57;;;44.83;;
15905;SDS011;8051;50.820;4.884;2024-01-07T02:31:05;57.80;;;52.67;;
15905;SDS011;8051;50.820;4.884;2024-01-07T02:33:33;47.60;;;42.57;;
15905;SDS011;8051;50.820;4.884;2024-01-07T02:36:00;48.03;;;43.10;;
15905;SDS011;8051;50.820;4.884;2024-01-07T02:38:28;56.80;;;51.63;;
15905;SDS011;8051;50.820;4.884;2024-01-07T02:40:55;54.50;;;49.47;;
15905;SDS011;8051;50.820;4.884;2024-01-07T02:43:24;54.20;;;49.23;;
15905;SDS011;8051;50.820;4.884;2024-01-07T02:45:51;56.30;;;51.00;;
15905;SDS011;8051;50.820;4.884;2024-01-07T02:48:19;58.67;;;52.97;;
15905;SDS011;8051;50.820;4.884;2024-01-07T02:50:46;53.67;;;48.77;;
15905;SDS011;8051;50.820;4.884;2024-01-07T02:53:13;57.43;;;51.93;;
15905;SDS011;8051;50.820;4.884;2024-01-07T02:55:41;59.43;;;54.03;;
15905;SDS011;8051;50.820;4.884;2024-01-07T02:58:09;57.17;;;51.77;;
15905;SDS011;8051;50.820;4.884;2024-01-07T03:00:37;57.70;;;52.43;;
15905;SDS011;8051;50.820;4.884;2024-01-07T03:03:05;61.50;;;55.63;;
15905;SDS011;8051;50.820;4.884;2024-01-07T03:05:32;56.47;;;51.13;;
15905;SDS011;8051;50.820;4.884;2024-01-07T03:08:00;58.77;;;53.27;;
15905;SDS011;8051;50.820;4.884;2024-01-07T03:10:27;58.83;;;52.97;;
15905;SDS011;8051;50.820;4.884;2024-01-07T03:12:55;54.43;;;49.43;;
15905;SDS011;8051;50.820;4.884;2024-01-07T03:15:22;54.53;;;49.30;;
15905;SDS011;8051;50.820;4.884;2024-01-07T03:17:51;49.53;;;44.67;;
15905;SDS011;8051;50.820;4.884;2024-01-07T03:20:18;51.33;;;46.13;;
15905;SDS011;8051;50.820;4.884;2024-01-07T03:22:46;49.20;;;44.10;;
15905;SDS011;8051;50.820;4.884;2024-01-07T03:25:13;52.03;;;47.10;;
15905;SDS011;8051;50.820;4.884;2024-01-07T03:27:41;57.10;;;51.73;;
15905;SDS011;8051;50.820;4.884;2024-01-07T03:30:09;50.73;;;45.23;;
15905;SDS011;8051;50.820;4.884;2024-01-07T03:32:37;48.87;;;44.07;;
15905;SDS011;8051;50.820;4.884;2024-01-07T03:35:06;54.67;;;49.30;;
15905;SDS011;8051;50.820;4.884;2024-01-07T03:37:35;57.37;;;51.80;;
15905;SDS011;8051;50.820;4.884;2024-01-07T03:40:02;52.33;;;47.23;;
15905;SDS011;8051;50.820;4.884;2024-01-07T03:42:35;53.87;;;48.63;;
15905;SDS011;8051;50.820;4.884;2024-01-07T03:45:03;57.33;;;51.70;;
15905;SDS011;8051;50.820;4.884;2024-01-07T03:47:31;52.73;;;47.57;;
15905;SDS011;8051;50.820;4.884;2024-01-07T03:49:58;53.00;;;48.00;;
15905;SDS011;8051;50.820;4.884;2024-01-07T03:52:27;57.63;;;52.40;;
15905;SDS011;8051;50.820;4.884;2024-01-07T03:54:55;57.13;;;51.53;;
15905;SDS011;8051;50.820;4.884;2024-01-07T03:57:22;54.00;;;49.17;;
15905;SDS011;8051;50.820;4.884;2024-01-07T03:59:49;57.77;;;52.17;;
15905;SDS011;8051;50.820;4.884;2024-01-07T04:02:17;55.43;;;49.97;;
15905;SDS011;8051;50.820;4.884;2024-01-07T04:04:44;57.90;;;52.43;;
15905;SDS011;8051;50.820;4.884;2024-01-07T04:07:11;57.43;;;52.07;;
15905;SDS011;8051;50.820;4.884;2024-01-07T04:09:42;55.63;;;49.93;;
15905;SDS011;8051;50.820;4.884;2024-01-07T04:12:10;52.70;;;47.07;;
15905;SDS011;8051;50.820;4.884;2024-01-07T04:14:37;52.63;;;47.13;;
15905;SDS011;8051;50.820;4.884;2024-01-07T04:17:04;51.53;;;45.97;;
15905;SDS011;8051;50.820;4.884;2024-01-07T04:19:33;57.63;;;51.47;;
15905;SDS011;8051;50.820;4.884;2024-01-07T04:22:03;54.70;;;49.13;;
15905;SDS011;8051;50.820;4.884;2024-01-07T04:24:31;56.20;;;50.17;;
15905;SDS011;8051;50.820;4.884;2024-01-07T04:26:59;55.60;;;47.13;;
15905;SDS011;8051;50.820;4.884;2024-01-07T04:29:27;53.77;;;48.47;;
15905;SDS011;8051;50.820;4.884;2024-01-07T04:31:54;62.27;;;56.03;;
15905;SDS011;8051;50.820;4.884;2024-01-07T04:34:22;59.43;;;52.90;;
15905;SDS011;8051;50.820;4.884;2024-01-07T04:36:49;66.30;;;59.70;;
15905;SDS011;8051;50.820;4.884;2024-01-07T04:39:17;65.20;;;58.30;;
15905;SDS011;8051;50.820;4.884;2024-01-07T04:41:44;60.57;;;54.67;;
15905;SDS011;8051;50.820;4.884;2024-01-07T04:44:13;64.67;;;57.87;;
15905;SDS011;8051;50.820;4.884;2024-01-07T04:46:41;66.03;;;58.90;;
15905;SDS011;8051;50.820;4.884;2024-01-07T04:49:08;62.93;;;56.40;;
15905;SDS011;8051;50.820;4.884;2024-01-07T04:51:35;61.63;;;55.33;;
15905;SDS011;8051;50.820;4.884;2024-01-07T04:54:03;66.17;;;59.17;;
15905;SDS011;8051;50.820;4.884;2024-01-07T04:56:31;65.17;;;58.23;;
15905;SDS011;8051;50.820;4.884;2024-01-07T04:58:58;59.70;;;53.60;;
15905;SDS011;8051;50.820;4.884;2024-01-07T05:01:27;62.73;;;51.93;;
15905;SDS011;8051;50.820;4.884;2024-01-07T05:03:55;62.17;;;55.83;;
15905;SDS011;8051;50.820;4.884;2024-01-07T05:06:22;57.53;;;49.47;;
15905;SDS011;8051;50.820;4.884;2024-01-07T05:08:50;57.37;;;49.30;;
15905;SDS011;8051;50.820;4.884;2024-01-07T05:11:17;58.57;;;48.17;;
15905;SDS011;8051;50.820;4.884;2024-01-07T05:13:44;58.00;;;51.67;;
15905;SDS011;8051;50.820;4.884;2024-01-07T05:16:17;56.50;;;50.70;;
15905;SDS011;8051;50.820;4.884;2024-01-07T05:18:47;52.47;;;46.90;;
15905;SDS011;8051;50.820;4.884;2024-01-07T05:21:14;59.20;;;50.20;;
15905;SDS011;8051;50.820;4.884;2024-01-07T05:23:44;58.23;;;52.37;;
15905;SDS011;8051;50.820;4.884;2024-01-07T05:26:12;60.67;;;54.07;;
15905;SDS011;8051;50.820;4.884;2024-01-07T05:28:39;57.87;;;51.27;;
15905;SDS011;8051;50.820;4.884;2024-01-07T05:31:13;64.03;;;56.27;;
15905;SDS011;8051;50.820;4.884;2024-01-07T05:33:41;60.43;;;53.87;;
15905;SDS011;8051;50.820;4.884;2024-01-07T05:36:10;71.23;;;56.13;;
15905;SDS011;8051;50.820;4.884;2024-01-07T05:38:37;59.87;;;53.47;;
15905;SDS011;8051;50.820;4.884;2024-01-07T05:41:05;61.63;;;53.37;;
15905;SDS011;8051;50.820;4.884;2024-01-07T05:43:32;60.63;;;54.50;;
15905;SDS011;8051;50.820;4.884;2024-01-07T05:46:02;59.03;;;52.80;;
15905;SDS011;8051;50.820;4.884;2024-01-07T05:48:35;58.07;;;51.77;;
15905;SDS011;8051;50.820;4.884;2024-01-07T05:51:11;65.40;;;53.80;;
15905;SDS011;8051;50.820;4.884;2024-01-07T05:53:39;60.10;;;52.17;;
15905;SDS011;8051;50.820;4.884;2024-01-07T05:56:06;55.47;;;47.87;;
15905;SDS011;8051;50.820;4.884;2024-01-07T05:58:34;49.87;;;44.60;;
15905;SDS011;8051;50.820;4.884;2024-01-07T06:01:02;53.13;;;44.60;;
15905;SDS011;8051;50.820;4.884;2024-01-07T06:03:29;64.07;;;48.77;;
15905;SDS011;8051;50.820;4.884;2024-01-07T06:05:57;59.63;;;50.80;;
15905;SDS011;8051;50.820;4.884;2024-01-07T06:08:26;69.97;;;49.37;;
15905;SDS011;8051;50.820;4.884;2024-01-07T06:10:53;56.37;;;46.83;;
15905;SDS011;8051;50.820;4.884;2024-01-07T06:13:21;57.93;;;48.63;;
15905;SDS011;8051;50.820;4.884;2024-01-07T06:15:48;56.10;;;45.93;;
15905;SDS011;8051;50.820;4.884;2024-01-07T06:18:16;60.40;;;48.40;;
15905;SDS011;8051;50.820;4.884;2024-01-07T06:20:43;60.30;;;48.00;;
15905;SDS011;8051;50.820;4.884;2024-01-07T06:23:11;55.00;;;45.40;;
15905;SDS011;8051;50.820;4.884;2024-01-07T06:25:39;54.03;;;45.03;;
15905;SDS011;8051;50.820;4.884;2024-01-07T06:28:07;59.53;;;46.17;;
15905;SDS011;8051;50.820;4.884;2024-01-07T06:30:35;48.13;;;42.50;;
15905;SDS011;8051;50.820;4.884;2024-01-07T06:33:03;53.33;;;43.57;;
15905;SDS011;8051;50.820;4.884;2024-01-07T06:35:31;61.97;;;44.70;;
15905;SDS011;8051;50.820;4.884;2024-01-07T06:37:59;51.90;;;43.40;;
15905;SDS011;8051;50.820;4.884;2024-01-07T06:40:26;57.50;;;43.97;;
15905;SDS011;8051;50.820;4.884;2024-01-07T06:42:55;54.77;;;43.63;;
15905;SDS011;8051;50.820;4.884;2024-01-07T06:45:22;57.00;;;41.20;;
15905;SDS011;8051;50.820;4.884;2024-01-07T06:47:50;54.63;;;42.73;;
15905;SDS011;8051;50.820;4.884;2024-01-07T06:50:18;60.50;;;43.43;;
15905;SDS011;8051;50.820;4.884;2024-01-07T06:52:46;63.87;;;47.07;;
15905;SDS011;8051;50.820;4.884;2024-01-07T06:55:14;62.27;;;46.27;;
15905;SDS011;8051;50.820;4.884;2024-01-07T06:57:41;59.03;;;44.80;;
15905;SDS011;8051;50.820;4.884;2024-01-07T07:00:11;53.67;;;44.10;;
15905;SDS011;8051;50.820;4.884;2024-01-07T07:02:40;57.43;;;46.10;;
15905;SDS011;8051;50.820;4.884;2024-01-07T07:05:08;66.00;;;49.90;;
15905;SDS011;8051;50.820;4.884;2024-01-07T07:07:35;70.07;;;50.70;;
15905;SDS011;8051;50.820;4.884;2024-01-07T07:10:03;75.27;;;48.83;;
15905;SDS011;8051;50.820;4.884;2024-01-07T07:12:31;66.63;;;50.60;;
15905;SDS011;8051;50.820;4.884;2024-01-07T07:14:58;71.50;;;55.20;;
15905;SDS011;8051;50.820;4.884;2024-01-07T07:17:26;69.00;;;54.83;;
15905;SDS011;8051;50.820;4.884;2024-01-07T07:19:53;66.63;;;51.37;;
15905;SDS011;8051;50.820;4.884;2024-01-07T07:22:21;70.57;;;51.47;;
15905;SDS011;8051;50.820;4.884;2024-01-07T07:24:48;64.47;;;51.27;;
15905;SDS011;8051;50.820;4.884;2024-01-07T07:27:16;55.03;;;48.60;;
15905;SDS011;8051;50.820;4.884;2024-01-07T07:29:43;55.03;;;45.40;;
15905;SDS011;8051;50.820;4.884;2024-01-07T07:32:11;57.83;;;46.27;;
15905;SDS011;8051;50.820;4.884;2024-01-07T07:34:40;50.00;;;44.70;;
15905;SDS011;8051;50.820;4.884;2024-01-07T07:37:07;56.00;;;45.93;;
15905;SDS011;8051;50.820;4.884;2024-01-07T07:39:35;50.77;;;45.30;;
15905;SDS011;8051;50.820;4.884;2024-01-07T07:42:03;51.00;;;45.13;;
15905;SDS011;8051;50.820;4.884;2024-01-07T07:44:30;56.53;;;50.23;;
15905;SDS011;8051;50.820;4.884;2024-01-07T07:46:57;51.87;;;45.47;;
15905;SDS011;8051;50.820;4.884;2024-01-07T07:49:26;53.03;;;45.83;;
15905;SDS011;8051;50.820;4.884;2024-01-07T07:51:54;54.23;;;48.43;;
15905;SDS011;8051;50.820;4.884;2024-01-07T07:54:23;58.63;;;52.33;;
15905;SDS011;8051;50.820;4.884;2024-01-07T07:56:51;51.60;;;46.20;;
15905;SDS011;8051;50.820;4.884;2024-01-07T07:59:18;55.77;;;49.87;;
15905;SDS011;8051;50.820;4.884;2024-01-07T08:01:46;58.80;;;51.73;;
15905;SDS011;8051;50.820;4.884;2024-01-07T08:04:14;56.60;;;49.80;;
15905;SDS011;8051;50.820;4.884;2024-01-07T08:06:42;55.50;;;49.47;;
15905;SDS011;8051;50.820;4.884;2024-01-07T08:09:11;61.30;;;52.90;;
15905;SDS011;8051;50.820;4.884;2024-01-07T08:11:39;51.10;;;45.23;;
15905;SDS011;8051;50.820;4.884;2024-01-07T08:14:06;51.40;;;45.87;;
15905;SDS011;8051;50.820;4.884;2024-01-07T08:16:34;52.87;;;46.53;;
15905;SDS011;8051;50.820;4.884;2024-01-07T08:19:01;46.83;;;41.90;;
15905;SDS011;8051;50.820;4.884;2024-01-07T08:21:29;46.00;;;41.20;;
15905;SDS011;8051;50.820;4.884;2024-01-07T08:23:56;47.87;;;42.97;;
15905;SDS011;8051;50.820;4.884;2024-01-07T08:26:25;47.33;;;42.33;;
15905;SDS011;8051;50.820;4.884;2024-01-07T08:28:53;46.80;;;42.17;;
15905;SDS011;8051;50.820;4.884;2024-01-07T08:31:20;48.23;;;43.23;;
15905;SDS011;8051;50.820;4.884;2024-01-07T08:33:47;46.57;;;41.97;;
15905;SDS011;8051;50.820;4.884;2024-01-07T08:36:15;47.23;;;42.37;;
15905;SDS011;8051;50.820;4.884;2024-01-07T08:38:43;46.73;;;41.87;;
15905;SDS011;8051;50.820;4.884;2024-01-07T08:41:11;45.50;;;41.13;;
15905;SDS011;8051;50.820;4.884;2024-01-07T08:43:42;48.10;;;43.00;;
15905;SDS011;8051;50.820;4.884;2024-01-07T08:46:10;43.43;;;38.90;;
15905;SDS011;8051;50.820;4.884;2024-01-07T08:48:39;42.93;;;38.90;;
15905;SDS011;8051;50.820;4.884;2024-01-07T08:51:06;47.27;;;42.77;;
15905;SDS011;8051;50.820;4.884;2024-01-07T08:53:34;43.47;;;39.33;;
15905;SDS011;8051;50.820;4.884;2024-01-07T08:56:01;44.43;;;40.23;;
15905;SDS011;8051;50.820;4.884;2024-01-07T08:58:29;44.93;;;40.47;;
15905;SDS011;8051;50.820;4.884;2024-01-07T09:00:57;42.50;;;38.60;;
15905;SDS011;8051;50.820;4.884;2024-01-07T09:03:25;45.23;;;40.93;;
15905;SDS011;8051;50.820;4.884;2024-01-07T09:05:52;43.67;;;39.67;;
15905;SDS011;8051;50.820;4.884;2024-01-07T09:08:20;43.37;;;39.50;;
15905;SDS011;8051;50.820;4.884;2024-01-07T09:10:48;44.60;;;40.43;;
15905;SDS011;8051;50.820;4.884;2024-01-07T09:13:15;44.13;;;39.83;;
15905;SDS011;8051;50.820;4.884;2024-01-07T09:15:43;44.43;;;40.07;;
15905;SDS011;8051;50.820;4.884;2024-01-07T09:18:12;42.10;;;38.20;;
15905;SDS011;8051;50.820;4.884;2024-01-07T09:20:39;41.17;;;37.37;;
15905;SDS011;8051;50.820;4.884;2024-01-07T09:23:07;44.67;;;40.27;;
15905;SDS011;8051;50.820;4.884;2024-01-07T09:25:34;42.57;;;38.73;;
15905;SDS011;8051;50.820;4.884;2024-01-07T09:28:02;43.03;;;39.00;;
15905;SDS011;8051;50.820;4.884;2024-01-07T09:30:30;42.03;;;38.10;;
15905;SDS011;8051;50.820;4.884;2024-01-07T09:32:58;43.03;;;38.90;;
15905;SDS011;8051;50.820;4.884;2024-01-07T09:35:27;41.53;;;37.63;;
15905;SDS011;8051;50.820;4.884;2024-01-07T09:37:55;42.03;;;37.93;;
15905;SDS011;8051;50.820;4.884;2024-01-07T09:40:22;48.10;;;39.80;;
15905;SDS011;8051;50.820;4.884;2024-01-07T09:42:50;46.13;;;41.63;;
15905;SDS011;8051;50.820;4.884;2024-01-07T09:45:18;45.30;;;41.07;;
15905;SDS011;8051;50.820;4.884;2024-01-07T09:47:47;44.63;;;40.37;;
15905;SDS011;8051;50.820;4.884;2024-01-07T09:50:15;43.43;;;39.00;;
15905;SDS011;8051;50.820;4.884;2024-01-07T09:52:44;49.37;;;44.00;;
15905;SDS011;8051;50.820;4.884;2024-01-07T09:55:14;48.63;;;43.93;;
15905;SDS011;8051;50.820;4.884;2024-01-07T09:57:48;46.10;;;41.57;;
15905;SDS011;8051;50.820;4.884;2024-01-07T10:00:16;43.97;;;39.63;;
15905;SDS011;8051;50.820;4.884;2024-01-07T10:02:43;48.07;;;43.17;;
15905;SDS011;8051;50.820;4.884;2024-01-07T10:05:11;45.77;;;41.37;;
15905;SDS011;8051;50.820;4.884;2024-01-07T10:07:38;44.47;;;40.03;;
15905;SDS011;8051;50.820;4.884;2024-01-07T10:10:14;46.23;;;41.47;;
15905;SDS011;8051;50.820;4.884;2024-01-07T10:12:43;43.10;;;39.10;;
15905;SDS011;8051;50.820;4.884;2024-01-07T10:15:12;41.00;;;37.03;;
15905;SDS011;8051;50.820;4.884;2024-01-07T10:17:39;42.10;;;37.87;;
15905;SDS011;8051;50.820;4.884;2024-01-07T10:20:09;42.07;;;37.93;;
15905;SDS011;8051;50.820;4.884;2024-01-07T10:22:38;44.30;;;39.57;;
15905;SDS011;8051;50.820;4.884;2024-01-07T10:25:06;43.00;;;38.87;;
15905;SDS011;8051;50.820;4.884;2024-01-07T10:27:35;45.90;;;41.30;;
15905;SDS011;8051;50.820;4.884;2024-01-07T10:30:03;47.37;;;42.50;;
15905;SDS011;8051;50.820;4.884;2024-01-07T10:32:31;47.63;;;42.50;;
15905;SDS011;8051;50.820;4.884;2024-01-07T10:35:02;47.30;;;42.57;;
15905;SDS011;8051;50.820;4.884;2024-01-07T10:37:31;51.10;;;44.77;;
15905;SDS011;8051;50.820;4.884;2024-01-07T10:39:59;53.67;;;41.50;;
15905;SDS011;8051;50.820;4.884;2024-01-07T10:42:28;45.40;;;40.60;;
15905;SDS011;8051;50.820;4.884;2024-01-07T10:44:59;44.90;;;40.43;;
15905;SDS011;8051;50.820;4.884;2024-01-07T10:47:27;44.07;;;39.33;;
15905;SDS011;8051;50.820;4.884;2024-01-07T10:49:57;44.77;;;40.13;;
15905;SDS011;8051;50.820;4.884;2024-01-07T10:52:26;46.10;;;41.10;;
15905;SDS011;8051;50.820;4.884;2024-01-07T10:54:56;45.47;;;40.73;;
15905;SDS011;8051;50.820;4.884;2024-01-07T10:57:34;44.83;;;40.20;;
15905;SDS011;8051;50.820;4.884;2024-01-07T11:00:07;47.43;;;42.67;;
15905;SDS011;8051;50.820;4.884;2024-01-07T11:02:48;45.20;;;40.27;;
15905;SDS011;8051;50.820;4.884;2024-01-07T11:05:23;45.00;;;40.40;;
15905;SDS011;8051;50.820;4.884;2024-01-07T11:08:03;47.37;;;42.33;;
15905;SDS011;8051;50.820;4.884;2024-01-07T11:10:37;42.80;;;38.43;;
15905;SDS011;8051;50.820;4.884;2024-01-07T11:13:09;47.77;;;42.37;;
15905;SDS011;8051;50.820;4.884;2024-01-07T11:15:52;53.33;;;42.57;;
15905;SDS011;8051;50.820;4.884;2024-01-07T11:18:20;47.73;;;42.70;;
15905;SDS011;8051;50.820;4.884;2024-01-07T11:20:48;48.10;;;41.03;;
15905;SDS011;8051;50.820;4.884;2024-01-07T11:25:59;50.13;;;42.40;;
15905;SDS011;8051;50.820;4.884;2024-01-07T11:28:43;43.53;;;39.37;;
15905;SDS011;8051;50.820;4.884;2024-01-07T11:31:16;45.63;;;40.83;;
15905;SDS011;8051;50.820;4.884;2024-01-07T11:33:45;45.37;;;40.83;;
15905;SDS011;8051;50.820;4.884;2024-01-07T11:36:13;47.57;;;42.07;;
15905;SDS011;8051;50.820;4.884;2024-01-07T11:38:41;44.53;;;40.13;;
15905;SDS011;8051;50.820;4.884;2024-01-07T11:41:10;46.23;;;41.43;;
15905;SDS011;8051;50.820;4.884;2024-01-07T11:43:43;44.57;;;39.77;;
15905;SDS011;8051;50.820;4.884;2024-01-07T11:46:22;46.07;;;41.50;;
15905;SDS011;8051;50.820;4.884;2024-01-07T11:48:50;42.93;;;38.70;;
15905;SDS011;8051;50.820;4.884;2024-01-07T11:51:23;45.70;;;40.87;;
15905;SDS011;8051;50.820;4.884;2024-01-07T11:53:51;44.83;;;40.10;;
15905;SDS011;8051;50.820;4.884;2024-01-07T11:56:19;45.93;;;41.67;;
15905;SDS011;8051;50.820;4.884;2024-01-07T11:58:47;44.33;;;39.83;;
15905;SDS011;8051;50.820;4.884;2024-01-07T12:01:14;45.50;;;41.07;;
15905;SDS011;8051;50.820;4.884;2024-01-07T12:03:44;47.90;;;42.77;;
15905;SDS011;8051;50.820;4.884;2024-01-07T12:06:12;46.43;;;41.47;;
15905;SDS011;8051;50.820;4.884;2024-01-07T12:08:40;47.20;;;42.40;;
15905;SDS011;8051;50.820;4.884;2024-01-07T12:11:08;47.77;;;42.23;;
15905;SDS011;8051;50.820;4.884;2024-01-07T12:13:37;44.10;;;39.43;;
15905;SDS011;8051;50.820;4.884;2024-01-07T12:16:05;45.57;;;40.87;;
15905;SDS011;8051;50.820;4.884;2024-01-07T12:18:36;45.57;;;40.87;;
15905;SDS011;8051;50.820;4.884;2024-01-07T12:21:05;41.50;;;37.77;;
15905;SDS011;8051;50.820;4.884;2024-01-07T12:23:34;44.50;;;40.00;;
15905;SDS011;8051;50.820;4.884;2024-01-07T12:26:07;45.07;;;40.87;;
15905;SDS011;8051;50.820;4.884;2024-01-07T12:28:35;48.40;;;43.47;;
15905;SDS011;8051;50.820;4.884;2024-01-07T12:31:03;43.90;;;39.50;;
15905;SDS011;8051;50.820;4.884;2024-01-07T12:33:31;44.37;;;40.13;;
15905;SDS011;8051;50.820;4.884;2024-01-07T12:35:59;42.43;;;38.53;;
15905;SDS011;8051;50.820;4.884;2024-01-07T12:38:28;43.13;;;38.77;;
15905;SDS011;8051;50.820;4.884;2024-01-07T12:40:56;40.47;;;36.67;;
15905;SDS011;8051;50.820;4.884;2024-01-07T12:43:23;42.13;;;38.03;;
15905;SDS011;8051;50.820;4.884;2024-01-07T12:45:51;44.10;;;39.43;;
15905;SDS011;8051;50.820;4.884;2024-01-07T12:48:20;45.10;;;40.73;;
15905;SDS011;8051;50.820;4.884;2024-01-07T12:50:47;45.43;;;40.77;;
15905;SDS011;8051;50.820;4.884;2024-01-07T12:53:15;43.20;;;39.03;;
15905;SDS011;8051;50.820;4.884;2024-01-07T12:55:44;45.40;;;41.10;;
15905;SDS011;8051;50.820;4.884;2024-01-07T12:58:11;41.97;;;38.10;;
15905;SDS011;8051;50.820;4.884;2024-01-07T13:00:39;50.60;;;45.70;;
15905;SDS011;8051;50.820;4.884;2024-01-07T13:03:07;54.30;;;48.77;;
15905;SDS011;8051;50.820;4.884;2024-01-07T13:05:39;43.73;;;39.87;;
15905;SDS011;8051;50.820;4.884;2024-01-07T13:08:07;58.53;;;52.60;;
15905;SDS011;8051;50.820;4.884;2024-01-07T13:10:34;153.27;;;124.73;;
15905;SDS011;8051;50.820;4.884;2024-01-07T13:13:03;49.93;;;45.17;;
15905;SDS011;8051;50.820;4.884;2024-01-07T13:15:31;54.83;;;49.33;;
15905;SDS011;8051;50.820;4.884;2024-01-07T13:17:58;43.37;;;39.40;;
15905;SDS011;8051;50.820;4.884;2024-01-07T13:20:26;44.23;;;40.13;;
15905;SDS011;8051;50.820;4.884;2024-01-07T13:22:53;42.33;;;38.33;;
15905;SDS011;8051;50.820;4.884;2024-01-07T13:25:20;41.90;;;38.20;;
15905;SDS011;8051;50.820;4.884;2024-01-07T13:27:48;43.90;;;40.10;;
15905;SDS011;8051;50.820;4.884;2024-01-07T13:30:17;41.83;;;38.33;;
15905;SDS011;8051;50.820;4.884;2024-01-07T13:32:44;42.77;;;38.93;;
15905;SDS011;8051;50.820;4.884;2024-01-07T13:35:14;42.07;;;38.37;;
15905;SDS011;8051;50.820;4.884;2024-01-07T13:37:42;41.30;;;37.80;;
15905;SDS011;8051;50.820;4.884;2024-01-07T13:40:10;44.57;;;40.47;;
15905;SDS011;8051;50.820;4.884;2024-01-07T13:42:39;41.67;;;37.87;;
15905;SDS011;8051;50.820;4.884;2024-01-07T13:45:07;44.77;;;40.60;;
15905;SDS011;8051;50.820;4.884;2024-01-07T13:47:36;41.53;;;37.97;;
15905;SDS011;8051;50.820;4.884;2024-01-07T13:50:04;42.50;;;38.13;;
15905;SDS011;8051;50.820;4.884;2024-01-07T13:52:34;41.80;;;38.17;;
15905;SDS011;8051;50.820;4.884;2024-01-07T13:55:02;45.60;;;41.57;;
15905;SDS011;8051;50.820;4.884;2024-01-07T13:57:30;44.40;;;40.43;;
15905;SDS011;8051;50.820;4.884;2024-01-07T13:59:57;38.57;;;35.47;;
15905;SDS011;8051;50.820;4.884;2024-01-07T14:02:23;41.23;;;37.67;;
15905;SDS011;8051;50.820;4.884;2024-01-07T14:04:52;41.87;;;38.47;;
15905;SDS011;8051;50.820;4.884;2024-01-07T14:07:20;43.03;;;39.33;;
15905;SDS011;8051;50.820;4.884;2024-01-07T14:09:49;40.67;;;37.10;;
15905;SDS011;8051;50.820;4.884;2024-01-07T14:12:17;43.43;;;39.03;;
15905;SDS011;8051;50.820;4.884;2024-01-07T14:14:44;40.13;;;36.77;;
15905;SDS011;8051;50.820;4.884;2024-01-07T14:17:11;42.83;;;39.03;;
15905;SDS011;8051;50.820;4.884;2024-01-07T14:19:39;41.50;;;37.83;;
15905;SDS011;8051;50.820;4.884;2024-01-07T14:22:08;42.87;;;39.17;;
15905;SDS011;8051;50.820;4.884;2024-01-07T14:24:36;42.87;;;38.93;;
15905;SDS011;8051;50.820;4.884;2024-01-07T14:27:03;44.27;;;40.37;;
15905;SDS011;8051;50.820;4.884;2024-01-07T14:29:31;42.87;;;39.27;;
15905;SDS011;8051;50.820;4.884;2024-01-07T14:31:58;43.57;;;39.57;;
15905;SDS011;8051;50.820;4.884;2024-01-07T14:34:27;43.63;;;39.80;;
15905;SDS011;8051;50.820;4.884;2024-01-07T14:36:55;44.20;;;40.37;;
15905;SDS011;8051;50.820;4.884;2024-01-07T14:39:24;44.43;;;40.50;;
15905;SDS011;8051;50.820;4.884;2024-01-07T14:41:51;43.60;;;39.40;;